sensor_id;sensor_type;location;lat;lon;timestamp;temperature;humidity
47434;SHT31;33184;48.774;8.918;2023-05-07T00:00:48;13.43;75.25
47434;SHT31;33184;48.774;8.918;2023-05-07T00:06:09;13.29;74.85
47434;SHT31;33184;48.774;8.918;2023-05-07T00:11:33;13.28;75.01
47434;SHT31;33184;48.774;8.918;2023-05-07T00:16:55;13.31;74.86
47434;SHT31;33184;48.774;8.918;2023-05-07T00:22:16;13.26;74.57
47434;SHT31;33184;48.774;8.918;2023-05-07T00:27:36;13.12;74.83
47434;SHT31;33184;48.774;8.918;2023-05-07T00:32:57;13.05;75.64
47434;SHT31;33184;48.774;8.918;2023-05-07T00:38:19;12.93;76.01
47434;SHT31;33184;48.774;8.918;2023-05-07T00:43:39;12.83;75.98
47434;SHT31;33184;48.774;8.918;2023-05-07T00:49:01;12.70;76.28
47434;SHT31;33184;48.774;8.918;2023-05-07T00:54:21;12.68;76.28
47434;SHT31;33184;48.774;8.918;2023-05-07T00:59:45;12.65;76.53
47434;SHT31;33184;48.774;8.918;2023-05-07T01:05:06;12.65;77.04
47434;SHT31;33184;48.774;8.918;2023-05-07T01:10:28;12.61;77.11
47434;SHT31;33184;48.774;8.918;2023-05-07T01:15:50;12.56;77.42
47434;SHT31;33184;48.774;8.918;2023-05-07T01:21:11;12.59;77.74
47434;SHT31;33184;48.774;8.918;2023-05-07T01:26:32;12.56;77.38
47434;SHT31;33184;48.774;8.918;2023-05-07T01:31:54;12.51;77.70
47434;SHT31;33184;48.774;8.918;2023-05-07T01:37:16;12.50;78.08
47434;SHT31;33184;48.774;8.918;2023-05-07T01:42:37;12.40;78.19
47434;SHT31;33184;48.774;8.918;2023-05-07T01:47:58;12.40;78.63
47434;SHT31;33184;48.774;8.918;2023-05-07T01:53:19;12.37;79.11
47434;SHT31;33184;48.774;8.918;2023-05-07T01:58:39;12.42;79.00
47434;SHT31;33184;48.774;8.918;2023-05-07T02:04:02;12.50;78.72
47434;SHT31;33184;48.774;8.918;2023-05-07T02:09:24;12.49;78.55
47434;SHT31;33184;48.774;8.918;2023-05-07T02:14:45;12.40;78.66
47434;SHT31;33184;48.774;8.918;2023-05-07T02:20:07;12.29;79.16
47434;SHT31;33184;48.774;8.918;2023-05-07T02:25:33;12.20;79.08
47434;SHT31;33184;48.774;8.918;2023-05-07T02:30:54;12.10;78.93
47434;SHT31;33184;48.774;8.918;2023-05-07T02:36:15;12.02;79.30
47434;SHT31;33184;48.774;8.918;2023-05-07T02:41:43;12.06;79.42
47434;SHT31;33184;48.774;8.918;2023-05-07T02:47:04;11.89;79.69
47434;SHT31;33184;48.774;8.918;2023-05-07T02:52:25;11.83;80.16
47434;SHT31;33184;48.774;8.918;2023-05-07T02:57:46;11.78;79.91
47434;SHT31;33184;48.774;8.918;2023-05-07T03:03:07;11.74;79.58
47434;SHT31;33184;48.774;8.918;2023-05-07T03:08:27;11.67;79.17
47434;SHT31;33184;48.774;8.918;2023-05-07T03:13:49;11.52;79.55
47434;SHT31;33184;48.774;8.918;2023-05-07T03:19:11;11.41;80.60
47434;SHT31;33184;48.774;8.918;2023-05-07T03:24:32;11.32;81.22
47434;SHT31;33184;48.774;8.918;2023-05-07T03:29:52;11.21;81.51
47434;SHT31;33184;48.774;8.918;2023-05-07T03:35:15;11.13;82.10
47434;SHT31;33184;48.774;8.918;2023-05-07T03:40:36;11.07;82.35
47434;SHT31;33184;48.774;8.918;2023-05-07T03:45:58;11.04;82.22
47434;SHT31;33184;48.774;8.918;2023-05-07T03:51:21;11.08;82.24
47434;SHT31;33184;48.774;8.918;2023-05-07T03:56:42;11.17;82.25
47434;SHT31;33184;48.774;8.918;2023-05-07T04:02:02;11.17;81.01
47434;SHT31;33184;48.774;8.918;2023-05-07T04:07:25;11.14;80.64
47434;SHT31;33184;48.774;8.918;2023-05-07T04:12:45;11.13;80.50
47434;SHT31;33184;48.774;8.918;2023-05-07T04:18:10;11.16;81.22
47434;SHT31;33184;48.774;8.918;2023-05-07T04:23:32;11.01;81.54
47434;SHT31;33184;48.774;8.918;2023-05-07T04:28:56;10.90;81.86
47434;SHT31;33184;48.774;8.918;2023-05-07T04:34:24;10.94;82.24
47434;SHT31;33184;48.774;8.918;2023-05-07T04:39:45;10.99;81.94
47434;SHT31;33184;48.774;8.918;2023-05-07T04:45:06;11.04;81.77
47434;SHT31;33184;48.774;8.918;2023-05-07T04:50:29;11.14;82.04
47434;SHT31;33184;48.774;8.918;2023-05-07T04:55:55;11.21;82.22
47434;SHT31;33184;48.774;8.918;2023-05-07T05:01:17;11.14;82.09
47434;SHT31;33184;48.774;8.918;2023-05-07T05:06:39;11.16;83.02
47434;SHT31;33184;48.774;8.918;2023-05-07T05:12:00;11.30;82.59
47434;SHT31;33184;48.774;8.918;2023-05-07T05:17:21;11.40;81.84
47434;SHT31;33184;48.774;8.918;2023-05-07T05:22:42;11.44;81.76
47434;SHT31;33184;48.774;8.918;2023-05-07T05:28:03;11.69;81.83
47434;SHT31;33184;48.774;8.918;2023-05-07T05:33:27;11.86;81.97
47434;SHT31;33184;48.774;8.918;2023-05-07T05:38:55;11.86;82.15
47434;SHT31;33184;48.774;8.918;2023-05-07T05:44:17;12.00;82.17
47434;SHT31;33184;48.774;8.918;2023-05-07T05:49:37;12.23;81.84
47434;SHT31;33184;48.774;8.918;2023-05-07T05:55:00;12.47;81.57
47434;SHT31;33184;48.774;8.918;2023-05-07T06:00:22;12.64;81.33
47434;SHT31;33184;48.774;8.918;2023-05-07T06:05:50;12.70;81.60
47434;SHT31;33184;48.774;8.918;2023-05-07T06:11:13;12.80;81.00
47434;SHT31;33184;48.774;8.918;2023-05-07T06:16:36;12.83;80.59
47434;SHT31;33184;48.774;8.918;2023-05-07T06:21:59;12.94;80.35
47434;SHT31;33184;48.774;8.918;2023-05-07T06:27:23;13.04;80.37
47434;SHT31;33184;48.774;8.918;2023-05-07T06:32:44;13.19;80.39
47434;SHT31;33184;48.774;8.918;2023-05-07T06:38:06;13.56;80.06
47434;SHT31;33184;48.774;8.918;2023-05-07T06:43:27;13.82;79.83
47434;SHT31;33184;48.774;8.918;2023-05-07T06:49:07;14.22;80.95
47434;SHT31;33184;48.774;8.918;2023-05-07T06:54:28;14.55;79.61
47434;SHT31;33184;48.774;8.918;2023-05-07T06:59:49;14.78;77.97
47434;SHT31;33184;48.774;8.918;2023-05-07T07:05:10;15.16;77.38
47434;SHT31;33184;48.774;8.918;2023-05-07T07:10:32;15.51;76.06
47434;SHT31;33184;48.774;8.918;2023-05-07T07:15:53;15.88;75.18
47434;SHT31;33184;48.774;8.918;2023-05-07T07:21:14;16.12;74.87
47434;SHT31;33184;48.774;8.918;2023-05-07T07:26:35;16.48;73.74
47434;SHT31;33184;48.774;8.918;2023-05-07T07:31:56;16.74;72.48
47434;SHT31;33184;48.774;8.918;2023-05-07T07:37:17;16.84;72.18
47434;SHT31;33184;48.774;8.918;2023-05-07T07:42:38;16.97;72.01
47434;SHT31;33184;48.774;8.918;2023-05-07T07:47:59;17.07;71.22
47434;SHT31;33184;48.774;8.918;2023-05-07T07:53:20;17.16;70.95
47434;SHT31;33184;48.774;8.918;2023-05-07T07:58:41;17.39;71.10
47434;SHT31;33184;48.774;8.918;2023-05-07T08:04:02;17.78;69.99
47434;SHT31;33184;48.774;8.918;2023-05-07T08:09:25;18.02;68.89
47434;SHT31;33184;48.774;8.918;2023-05-07T08:14:47;18.14;68.69
47434;SHT31;33184;48.774;8.918;2023-05-07T08:20:09;17.96;68.08
47434;SHT31;33184;48.774;8.918;2023-05-07T08:25:30;17.96;67.79
47434;SHT31;33184;48.774;8.918;2023-05-07T08:30:50;18.16;67.27
47434;SHT31;33184;48.774;8.918;2023-05-07T08:36:13;18.60;65.29
47434;SHT31;33184;48.774;8.918;2023-05-07T08:41:34;18.81;65.53
47434;SHT31;33184;48.774;8.918;2023-05-07T08:46:56;19.22;65.45
47434;SHT31;33184;48.774;8.918;2023-05-07T08:52:18;19.38;64.75
47434;SHT31;33184;48.774;8.918;2023-05-07T08:57:40;19.42;63.08
47434;SHT31;33184;48.774;8.918;2023-05-07T09:03:02;19.50;64.14
47434;SHT31;33184;48.774;8.918;2023-05-07T09:08:27;19.87;62.51
47434;SHT31;33184;48.774;8.918;2023-05-07T09:13:57;19.86;63.32
47434;SHT31;33184;48.774;8.918;2023-05-07T09:19:27;20.03;63.15
47434;SHT31;33184;48.774;8.918;2023-05-07T09:24:50;20.30;61.90
47434;SHT31;33184;48.774;8.918;2023-05-07T09:30:13;20.79;61.31
47434;SHT31;33184;48.774;8.918;2023-05-07T09:35:34;20.99;58.45
47434;SHT31;33184;48.774;8.918;2023-05-07T09:41:05;21.10;57.45
47434;SHT31;33184;48.774;8.918;2023-05-07T09:46:30;21.24;57.59
47434;SHT31;33184;48.774;8.918;2023-05-07T09:51:54;21.13;56.60
47434;SHT31;33184;48.774;8.918;2023-05-07T09:57:19;21.37;57.01
47434;SHT31;33184;48.774;8.918;2023-05-07T10:02:46;21.61;55.46
47434;SHT31;33184;48.774;8.918;2023-05-07T10:08:08;22.01;55.66
47434;SHT31;33184;48.774;8.918;2023-05-07T10:13:33;22.14;53.87
47434;SHT31;33184;48.774;8.918;2023-05-07T10:18:58;21.97;55.03
47434;SHT31;33184;48.774;8.918;2023-05-07T10:24:22;22.10;55.06
47434;SHT31;33184;48.774;8.918;2023-05-07T10:30:07;22.32;55.22
47434;SHT31;33184;48.774;8.918;2023-05-07T10:35:41;22.63;53.85
47434;SHT31;33184;48.774;8.918;2023-05-07T10:41:04;22.59;53.67
47434;SHT31;33184;48.774;8.918;2023-05-07T10:46:27;22.42;52.51
47434;SHT31;33184;48.774;8.918;2023-05-07T10:52:14;22.11;53.09
47434;SHT31;33184;48.774;8.918;2023-05-07T10:57:41;21.81;53.43
47434;SHT31;33184;48.774;8.918;2023-05-07T11:03:09;21.46;57.11
47434;SHT31;33184;48.774;8.918;2023-05-07T11:08:53;21.26;58.92
47434;SHT31;33184;48.774;8.918;2023-05-07T11:20:06;20.85;60.47
47434;SHT31;33184;48.774;8.918;2023-05-07T11:25:40;20.62;61.21
47434;SHT31;33184;48.774;8.918;2023-05-07T11:31:08;20.45;62.21
47434;SHT31;33184;48.774;8.918;2023-05-07T11:36:31;20.40;63.22
47434;SHT31;33184;48.774;8.918;2023-05-07T11:41:54;20.31;63.11
47434;SHT31;33184;48.774;8.918;2023-05-07T11:47:19;20.34;62.89
47434;SHT31;33184;48.774;8.918;2023-05-07T11:52:39;20.30;63.13
47434;SHT31;33184;48.774;8.918;2023-05-07T11:58:00;20.30;63.40
47434;SHT31;33184;48.774;8.918;2023-05-07T12:03:20;20.01;67.80
47434;SHT31;33184;48.774;8.918;2023-05-07T12:08:42;19.83;69.33
47434;SHT31;33184;48.774;8.918;2023-05-07T12:14:03;19.53;60.79
47434;SHT31;33184;48.774;8.918;2023-05-07T12:19:23;19.05;63.66
47434;SHT31;33184;48.774;8.918;2023-05-07T12:24:48;18.56;68.78
47434;SHT31;33184;48.774;8.918;2023-05-07T12:30:10;18.32;70.92
47434;SHT31;33184;48.774;8.918;2023-05-07T12:35:37;17.82;70.49
47434;SHT31;33184;48.774;8.918;2023-05-07T12:40:59;17.45;71.71
47434;SHT31;33184;48.774;8.918;2023-05-07T12:46:20;17.41;73.33
47434;SHT31;33184;48.774;8.918;2023-05-07T12:51:41;17.06;74.20
47434;SHT31;33184;48.774;8.918;2023-05-07T12:57:06;17.30;72.64
47434;SHT31;33184;48.774;8.918;2023-05-07T13:02:34;17.41;72.91
47434;SHT31;33184;48.774;8.918;2023-05-07T13:07:56;17.04;74.82
47434;SHT31;33184;48.774;8.918;2023-05-07T13:13:16;16.84;74.48
47434;SHT31;33184;48.774;8.918;2023-05-07T13:18:38;16.96;75.45
47434;SHT31;33184;48.774;8.918;2023-05-07T13:23:59;16.96;75.31
47434;SHT31;33184;48.774;8.918;2023-05-07T13:29:20;16.77;75.84
47434;SHT31;33184;48.774;8.918;2023-05-07T13:34:45;16.84;78.47
47434;SHT31;33184;48.774;8.918;2023-05-07T13:40:06;16.82;78.28
47434;SHT31;33184;48.774;8.918;2023-05-07T13:45:30;16.66;78.82
47434;SHT31;33184;48.774;8.918;2023-05-07T13:50:51;16.45;78.28
47434;SHT31;33184;48.774;8.918;2023-05-07T13:56:11;16.45;78.57
47434;SHT31;33184;48.774;8.918;2023-05-07T14:01:32;16.36;78.50
47434;SHT31;33184;48.774;8.918;2023-05-07T14:06:52;16.17;80.01
47434;SHT31;33184;48.774;8.918;2023-05-07T14:12:13;16.05;81.02
47434;SHT31;33184;48.774;8.918;2023-05-07T14:17:33;15.88;82.23
47434;SHT31;33184;48.774;8.918;2023-05-07T14:22:54;15.91;82.89
47434;SHT31;33184;48.774;8.918;2023-05-07T14:28:14;15.88;84.05
47434;SHT31;33184;48.774;8.918;2023-05-07T14:33:35;15.98;84.59
47434;SHT31;33184;48.774;8.918;2023-05-07T14:38:55;16.07;84.44
47434;SHT31;33184;48.774;8.918;2023-05-07T14:44:19;16.14;84.70
47434;SHT31;33184;48.774;8.918;2023-05-07T14:49:39;16.18;84.82
47434;SHT31;33184;48.774;8.918;2023-05-07T14:55:00;16.22;84.52
47434;SHT31;33184;48.774;8.918;2023-05-07T15:00:21;16.25;83.91
47434;SHT31;33184;48.774;8.918;2023-05-07T15:05:41;16.21;83.27
47434;SHT31;33184;48.774;8.918;2023-05-07T15:11:02;16.31;83.05
47434;SHT31;33184;48.774;8.918;2023-05-07T15:16:23;16.31;82.48
47434;SHT31;33184;48.774;8.918;2023-05-07T15:21:43;16.33;83.05
47434;SHT31;33184;48.774;8.918;2023-05-07T15:27:04;16.08;84.55
47434;SHT31;33184;48.774;8.918;2023-05-07T15:32:24;16.02;86.01
47434;SHT31;33184;48.774;8.918;2023-05-07T15:37:45;16.00;86.86
47434;SHT31;33184;48.774;8.918;2023-05-07T15:43:05;15.88;87.17
47434;SHT31;33184;48.774;8.918;2023-05-07T15:48:26;15.84;86.92
47434;SHT31;33184;48.774;8.918;2023-05-07T15:53:47;16.07;85.69
47434;SHT31;33184;48.774;8.918;2023-05-07T15:59:08;16.19;85.18
47434;SHT31;33184;48.774;8.918;2023-05-07T16:04:29;16.32;84.65
47434;SHT31;33184;48.774;8.918;2023-05-07T16:09:50;16.43;83.76
47434;SHT31;33184;48.774;8.918;2023-05-07T16:15:10;16.55;82.10
47434;SHT31;33184;48.774;8.918;2023-05-07T16:20:31;16.51;82.84
47434;SHT31;33184;48.774;8.918;2023-05-07T16:25:52;16.49;83.06
47434;SHT31;33184;48.774;8.918;2023-05-07T16:31:12;16.60;82.94
47434;SHT31;33184;48.774;8.918;2023-05-07T16:36:33;16.82;82.79
47434;SHT31;33184;48.774;8.918;2023-05-07T16:41:53;16.80;82.41
47434;SHT31;33184;48.774;8.918;2023-05-07T16:47:14;16.76;81.16
47434;SHT31;33184;48.774;8.918;2023-05-07T16:52:35;16.63;81.71
47434;SHT31;33184;48.774;8.918;2023-05-07T16:57:55;16.60;82.96
47434;SHT31;33184;48.774;8.918;2023-05-07T17:03:16;16.49;83.25
47434;SHT31;33184;48.774;8.918;2023-05-07T17:08:36;16.38;83.90
47434;SHT31;33184;48.774;8.918;2023-05-07T17:13:57;16.35;84.22
47434;SHT31;33184;48.774;8.918;2023-05-07T17:19:17;16.28;84.53
47434;SHT31;33184;48.774;8.918;2023-05-07T17:24:38;16.25;84.84
47434;SHT31;33184;48.774;8.918;2023-05-07T17:29:59;16.21;85.19
47434;SHT31;33184;48.774;8.918;2023-05-07T17:35:19;16.26;85.68
47434;SHT31;33184;48.774;8.918;2023-05-07T17:40:40;16.15;85.08
47434;SHT31;33184;48.774;8.918;2023-05-07T17:46:00;16.15;85.39
47434;SHT31;33184;48.774;8.918;2023-05-07T17:51:22;16.15;85.89
47434;SHT31;33184;48.774;8.918;2023-05-07T17:56:43;16.12;85.72
47434;SHT31;33184;48.774;8.918;2023-05-07T18:02:03;16.05;85.89
47434;SHT31;33184;48.774;8.918;2023-05-07T18:07:24;16.02;86.21
47434;SHT31;33184;48.774;8.918;2023-05-07T18:12:44;16.04;86.55
47434;SHT31;33184;48.774;8.918;2023-05-07T18:18:05;15.88;87.23
47434;SHT31;33184;48.774;8.918;2023-05-07T18:23:26;15.77;87.39
47434;SHT31;33184;48.774;8.918;2023-05-07T18:28:46;15.68;87.97
47434;SHT31;33184;48.774;8.918;2023-05-07T18:34:07;15.68;87.77
47434;SHT31;33184;48.774;8.918;2023-05-07T18:39:30;15.68;87.74
47434;SHT31;33184;48.774;8.918;2023-05-07T18:44:51;15.57;87.21
47434;SHT31;33184;48.774;8.918;2023-05-07T18:50:11;15.49;87.39
47434;SHT31;33184;48.774;8.918;2023-05-07T18:55:32;15.39;87.51
47434;SHT31;33184;48.774;8.918;2023-05-07T19:00:53;15.33;87.71
47434;SHT31;33184;48.774;8.918;2023-05-07T19:06:14;15.33;87.96
47434;SHT31;33184;48.774;8.918;2023-05-07T19:11:35;15.30;88.04
47434;SHT31;33184;48.774;8.918;2023-05-07T19:16:55;15.32;87.88
47434;SHT31;33184;48.774;8.918;2023-05-07T19:22:16;15.23;87.18
47434;SHT31;33184;48.774;8.918;2023-05-07T19:27:37;15.26;87.00
47434;SHT31;33184;48.774;8.918;2023-05-07T19:33:00;15.19;87.48
47434;SHT31;33184;48.774;8.918;2023-05-07T19:38:21;15.10;88.19
47434;SHT31;33184;48.774;8.918;2023-05-07T19:43:41;15.03;88.36
47434;SHT31;33184;48.774;8.918;2023-05-07T19:49:02;14.98;89.06
47434;SHT31;33184;48.774;8.918;2023-05-07T19:54:23;14.95;89.12
47434;SHT31;33184;48.774;8.918;2023-05-07T19:59:45;14.91;89.21
47434;SHT31;33184;48.774;8.918;2023-05-07T20:05:06;14.92;89.34
47434;SHT31;33184;48.774;8.918;2023-05-07T20:10:27;14.93;89.64
47434;SHT31;33184;48.774;8.918;2023-05-07T20:15:47;14.89;89.72
47434;SHT31;33184;48.774;8.918;2023-05-07T20:21:08;14.93;89.84
47434;SHT31;33184;48.774;8.918;2023-05-07T20:26:29;14.93;90.19
47434;SHT31;33184;48.774;8.918;2023-05-07T20:31:49;14.92;90.51
47434;SHT31;33184;48.774;8.918;2023-05-07T20:37:12;14.89;90.58
47434;SHT31;33184;48.774;8.918;2023-05-07T20:42:34;14.89;90.60
47434;SHT31;33184;48.774;8.918;2023-05-07T20:47:55;14.88;90.59
47434;SHT31;33184;48.774;8.918;2023-05-07T20:53:16;14.86;90.63
47434;SHT31;33184;48.774;8.918;2023-05-07T20:58:36;14.86;90.71
47434;SHT31;33184;48.774;8.918;2023-05-07T21:03:57;14.86;90.71
47434;SHT31;33184;48.774;8.918;2023-05-07T21:09:18;14.88;90.72
47434;SHT31;33184;48.774;8.918;2023-05-07T21:14:39;14.88;90.58
47434;SHT31;33184;48.774;8.918;2023-05-07T21:20:00;14.86;90.66
47434;SHT31;33184;48.774;8.918;2023-05-07T21:25:22;14.86;90.63
47434;SHT31;33184;48.774;8.918;2023-05-07T21:30:43;14.85;90.60
47434;SHT31;33184;48.774;8.918;2023-05-07T21:36:04;14.79;90.81
47434;SHT31;33184;48.774;8.918;2023-05-07T21:41:28;14.82;90.87
47434;SHT31;33184;48.774;8.918;2023-05-07T21:46:48;14.76;90.96
47434;SHT31;33184;48.774;8.918;2023-05-07T21:52:14;14.78;91.04
47434;SHT31;33184;48.774;8.918;2023-05-07T21:57:35;14.78;91.19
47434;SHT31;33184;48.774;8.918;2023-05-07T22:02:56;14.75;91.08
47434;SHT31;33184;48.774;8.918;2023-05-07T22:08:17;14.72;90.89
47434;SHT31;33184;48.774;8.918;2023-05-07T22:13:37;14.69;90.86
47434;SHT31;33184;48.774;8.918;2023-05-07T22:18:58;14.71;90.85
47434;SHT31;33184;48.774;8.918;2023-05-07T22:24:18;14.68;90.93
47434;SHT31;33184;48.774;8.918;2023-05-07T22:29:39;14.68;90.95
47434;SHT31;33184;48.774;8.918;2023-05-07T22:35:00;14.62;91.08
47434;SHT31;33184;48.774;8.918;2023-05-07T22:40:20;14.61;91.14
47434;SHT31;33184;48.774;8.918;2023-05-07T22:45:41;14.58;91.49
47434;SHT31;33184;48.774;8.918;2023-05-07T22:51:01;14.62;91.58
47434;SHT31;33184;48.774;8.918;2023-05-07T22:56:22;14.64;91.52
47434;SHT31;33184;48.774;8.918;2023-05-07T23:01:44;14.68;91.53
47434;SHT31;33184;48.774;8.918;2023-05-07T23:07:04;14.68;91.51
47434;SHT31;33184;48.774;8.918;2023-05-07T23:12:27;14.69;91.47
47434;SHT31;33184;48.774;8.918;2023-05-07T23:17:48;14.68;91.69
47434;SHT31;33184;48.774;8.918;2023-05-07T23:23:09;14.65;91.78
47434;SHT31;33184;48.774;8.918;2023-05-07T23:28:30;14.62;91.82
47434;SHT31;33184;48.774;8.918;2023-05-07T23:33:51;14.58;91.82
47434;SHT31;33184;48.774;8.918;2023-05-07T23:39:11;14.55;91.82
47434;SHT31;33184;48.774;8.918;2023-05-07T23:44:32;14.54;91.91
47434;SHT31;33184;48.774;8.918;2023-05-07T23:49:52;14.57;91.89
47434;SHT31;33184;48.774;8.918;2023-05-07T23:55:13;14.54;91.83
